My Meet Scores
Sofia Best, Gymnastics X-Calibur - MyMeetScores.com
Top100 | Top Teams | Upcoming Meets | Completed Meets | Latest | Add Scores | Help| Support | Bookmark and Share

Sofia Best, Gymnastics X-Calibur
Personal Bests
LevelVault BarsBeamFloorAA
39.0259.300 8.8258.75035.850
48.7509.450 9.0509.22536.375
59.0259.150 9.3009.20035.950
69.0259.175 9.4259.52536.775
Meet Scores
Date Meet Team Session Level Division Vault Bars Beam Floor AA
2018-03-16 2018 Illinois Level 6, 9, 10 State Championships Gymnastics X-Calibur 07 6 Sr B 9.000 12T 8.825 13 9.425 6T 9.525 8 36.775 10
2018-03-01 Derby Classic 2018 Gymnastics X-Calibur 2B 6 Sr 8.800 8 8.825 1 9.150 8 9.325 2 36.100 3
2018-02-23 Kinetic Classic Gymnastics X-Calibur 9 6 Older 8.750 40T 9.175 24T 9.175 26* 9.425 22T 36.525 28T
2018-02-03 Midwest Games Gymnastics X-Calibur 3 6 SR 8.675 7 9.050 3 9.100 5T 9.350 3 36.175 2
2018-01-26 King Arthur Invitational Gymnastics X-Calibur 8 6 SR 9.025 14 8.750 4T 9.300 3 9.400 2 36.475 5
2018-01-12 St Jude Benefit Meet Gymnastics X-Calibur 6C 6 SrB 8.925 7 8.850 6 8.925 7 9.275 2 35.975 4
2017-03-30 2017 Illinois Level 3 & 5 State Gymnastics X-Calibur All 5 Sr D 8.550 23T 8.900 16T 9.300 9 9.200 7T 35.950 13T
2017-02-24 St. Louis Classic Gymnastics X-Calibur W-6 5 Sr B 9.025 10 9.150 1 8.950 6 8.750 7 35.875 2
2017-02-03 St. Valentines Classic Womens Gymnastics X-Calibur 4A 5 11+ yrs. 8.700 15 8.925 9 8.750 5T 8.900 6T 35.275 7
2016-12-02 Ultimate Wish Classic Gymnastics X-Calibur 4 5 Sr A 8.775 8 9.125 4 9.025 6 9.000 3T 35.925 5
2016-03-10 2016 Illinois Level 4 State Meet Gymnastics X-Calibur All 4 Sr-A 8.650 17 9.450 5 9.050 11 9.225 7 36.375 8
2016-02-27 Midwest Games 2016 Gymnastics X-Calibur 2 4 11 8.625 9 9.225 3 8.125 12T 8.925 5 34.900 7
2016-01-22 King Arthur Invitational Gymnastics X-Calibur S16 4 Sr.B 8.700 3 8.900 4 9.000 7 8.675 9 35.275 6
2015-12-04 2015 Ultimate Wish Classic Gymnastics X-Calibur 9B 4 All 8.625 35 9.000 15 9.025 14 8.825 34 35.475 17
2015-03-19 2015 Illinois Level 4 State Championship Gymnastics X-Calibur All 4 Jr.B 8.750 18 9.050 10 8.300 26 8.850 18 34.950 19
2015-02-13 Midwest Twisters Harley Meet Gymnastics X-Calibur O11 4 10 yrs 7.450 23 8.150 11 8.600 16 8.125 15 32.325 17
2015-01-23 King Arthur Invitational Gymnastics X-Calibur 5 4 SrA 8.500 15 8.000 20 8.600 15 8.400 16 33.500 18
2014-10-25 Twist And Turn Gymnastics X-Calibur 6 4 Jr 8.000 21 8.000 19 8.250 20 8.750 22 33.000 21
2014-03-07 Illinois Level 3 State Meet Gymnastics X-Calibur 1 3 Jr C 9.025 28 9.300 9 8.825 16 8.700 22 35.850 17
2014-02-07 Midwest Twisters Harley Meet Gymnastics X-Calibur S09 3 9 yrs. 8.850 21 9.025 10T 8.250 16T 8.750 15T 34.875 17
2013-03-01 St. Louis Classic Gymnastics X-Calibur 1-5 4 JR B 8.600 16 7.750 17 7.900 17 7.500 18 31.750 18
2013-02-16 BIG Dream Classic 2013 Gymnastics X-Calibur 1A 4 Junior A 8.525 21 8.700 18 7.500 21 7.900 21 32.625 21
2013-02-08 For Love Or Money Invitational Gymnastics X-Calibur 4 4 Love B 8.325 91 8.125 86 8.150 77 6.600 89 31.200 90T
2013-01-12 St. Jude Benefit Meet Gymnastics X-Calibur GymA 4 8B 8.250 36 8.000 36 7.850 36 0.000 37 24.100 37
2012-01-28 2012 King Arthur Invitational Gymnastics X-Calibur 1 3 Sr.A 8.100 7 7.200 6 8.400 6 8.100 6 31.800 7

www.lazysuits.com